Home > Products > Valid Products > MTR

000
SAUS41 KPHI 261456
MTRACY
METAR KACY 261454Z 35011KT 2 1/2SM RA BR BKN006 BKN010 OVC015 06/05
A3005 RMK AO2 CIG 004V008 SLP174 P0010 60022 T00560050 50001





000
SAUS41 KPHI 261455
MTR12N
METAR K12N 261454Z AUTO 03004KT 01/00 A3012 RMK AO1 SLP209 P0013
60019 T00060000 55005





000
SAUS41 KPHI 261444
MTRACY
SPECI KACY 261442Z 35012KT 2SM +RA BR BKN006 BKN010 OVC034 06/05
A3004 RMK AO2 P0007 T00560050





000
SAUS41 KPHI 261438
MTRACY
SPECI KACY 261435Z 01011KT 3SM RA BR BKN007 BKN012 OVC024 06/05
A3002 RMK AO2 P0005 T00560050





000
SAUS41 KPHI 261355
MTRACY
METAR KACY 261354Z 03009KT 2 1/2SM -RA BR BKN007 BKN011 OVC031 06/05
A3005 RMK AO2 SLP175 P0007 T00560050





000
SAUS41 KPHI 261355
MTR12N
METAR K12N 261354Z AUTO 05005KT 01/01 A3012 RMK AO1 SLP208 P0004
T00110006





000
SAUS41 KPHI 261343
MTRACY
SPECI KACY 261341Z 02009G17KT 2 1/2SM RA BR BKN009 OVC037 06/05
A3007 RMK AO2 P0006 T00610050





000
SAUS41 KPHI 261335
MTRACY
SPECI KACY 261334Z 03012G17KT 2 1/2SM -RA BR SCT007 BKN011 OVC037
06/05 A3006 RMK AO2 P0004 T00610050





000
SAUS41 KPHI 261326
MTRACY
SPECI KACY 261325Z AUTO 03009KT 3SM -RA BR BKN007 BKN021 OVC044
06/05 A3004 RMK AO2 P0003 T00610050 TSNO





000
SAUS41 KPHI 261257
MTRACY
METAR KACY 261254Z 02008KT 4SM -RA BR FEW007 SCT046 OVC060 06/05
A3004 RMK AO2 SLP174 P0005 T00560050





000
SAUS41 KPHI 261255
MTR12N
METAR K12N 261254Z AUTO VRB03KT 03/00 A3012 RMK AO1 SLP207 P0002
T00280000





000
SAUS41 KPHI 261252
MTRACY
SPECI KACY 261250Z 02009KT 4SM -RA BR FEW007 BKN055 OVC070 06/05
A3004 RMK AO2 P0005





000
SAUS41 KPHI 261243
MTRACY
SPECI KACY 261242Z 02009KT 3SM -RA BR FEW045 OVC060 06/05 A3005 RMK
AO2 P0005 T00560050





000
SAUS41 KPHI 261238
MTRACY
SPECI KACY 261235Z 02009KT 2 1/2SM RA BR FEW045 OVC060 06/05 A3006
RMK AO2 P0004 T00560050





000
SAUS41 KPHI 261156
MTRACY
METAR KACY 261154Z 01007KT 7SM -RA FEW035 SCT041 OVC055 06/05 A3010
RMK AO2 SLP192 P0004 60025 70025 T00560050 10083 20056 51003





000
SAUS41 KPHI 261155
MTR12N
METAR K12N 261154Z AUTO VRB04KT 04/M02 A3014 RMK AO1 SLP212
T00441017 10044 20028 58006





000
SAUS41 KPHI 261056
MTRACY
METAR KACY 261054Z 06007KT 7SM -RA OVC055 06/04 A3010 RMK AO2 SLP191
P0009 T00610044





000
SAUS41 KPHI 261055
MTR12N
METAR K12N 261054Z AUTO 36006KT 04/M02 A3012 RMK AO1 SLP208
T00441017





000
SAUS41 KPHI 260956
MTRACY
METAR KACY 260954Z 08005KT 6SM -RA BR OVC065 06/04 A3010 RMK AO2
SLP191 P0007 T00610044





000
SAUS41 KPHI 260956
MTRACY
METAR KACY 260954Z 08005KT 6SM -RA BR OVC065 06/04 A3010 RMK AO2
SLP191 P0007 T00610044





000
SAUS41 KPHI 260955
MTR12N
METAR K12N 260954Z AUTO 00000KT 04/00 A3017 RMK AO1 SLP222 T00440000





000
SAUS41 KPHI 260955
MTR12N
METAR K12N 260954Z AUTO 00000KT 04/00 A3017 RMK AO1 SLP222 T00440000





000
SAUS41 KPHI 260855
MTR12N
METAR K12N 260854Z AUTO 00000KT 04/01 A3015 RMK AO1 SLP215 T00390011
58002





000
SAUS41 KPHI 260855
MTRACY
METAR KACY 260854Z 03006KT 10SM -RA OVC085 07/04 A3009 RMK AO2
SLP188 P0004 60005 T00670039 58024





000
SAUS41 KPHI 260755
MTRACY
METAR KACY 260754Z 36005KT 10SM -RA OVC080 07/04 A3015 RMK AO2 RAB28
SLP211 P0001 T00720039





000
SAUS41 KPHI 260755
MTR12N
METAR K12N 260754Z AUTO 00000KT 03/01 A3020 RMK AO1 SLP229 T00280011





000
SAUS41 KPHI 260657
MTRACY
METAR KACY 260654Z 00000KT 10SM BKN080 OVC095 08/03 A3016 RMK AO2
SLP211 T00780033





000
SAUS41 KPHI 260655
MTR12N
METAR K12N 260654Z AUTO 00000KT 03/01 A3017 RMK AO1 SLP221 T00330011





000
SAUS41 KPHI 260556
MTRACY
METAR KACY 260554Z 35004KT 10SM BKN095 OVC110 07/03 A3016 RMK AO2
SLP213 T00720033 10094 20067 50001





000
SAUS41 KPHI 260555
MTR12N
METAR K12N 260554Z AUTO 00000KT 03/01 A3016 RMK AO1 SLP218 T00280006
10033 20011 51007





000
SAUS41 KPHI 260457
MTRACY
METAR KACY 260454Z 00000KT 10SM OVC110 08/03 A3018 RMK AO2 SLP218
T00780033 401830072





000
SAUS41 KPHI 260455
MTR12N
METAR K12N 260454Z AUTO 00000KT 03/00 A3015 RMK AO1 SLP214 T00280000
401670011





000
SAUS41 KPHI 260355
MTRACY
METAR KACY 260354Z 00000KT 10SM CLR 09/02 A3018 RMK AO2 SLP218
T00890022





000
SAUS41 KPHI 260355
MTR12N
METAR K12N 260354Z AUTO 00000KT 02/01 A3016 RMK AO1 SLP218 T00220006





000
SAUS41 KPHI 260355
MTRACY
METAR KACY 260354Z 00000KT 10SM CLR 09/02 A3018 RMK AO2 SLP218
T00890022





000
SAUS41 KPHI 260355
MTR12N
METAR K12N 260354Z AUTO 00000KT 02/01 A3016 RMK AO1 SLP218 T00220006





000
SAUS41 KPHI 260257
MTRACY
METAR KACY 260254Z 00000KT 10SM FEW120 08/03 A3016 RMK AO2 SLP211
T00830028 51023





000
SAUS41 KPHI 260255
MTR12N
METAR K12N 260254Z AUTO 00000KT 02/01 A3014 RMK AO1 SLP211 T00220006
53022





000
SAUS41 KPHI 260157
MTRACY
METAR KACY 260154Z 00000KT 10SM CLR 08/02 A3013 RMK AO2 SLP203
T00830017





000
SAUS41 KPHI 260155
MTR12N
METAR K12N 260154Z AUTO 00000KT 02/M01 A3011 RMK AO1 SLP202
T00171006





000
SAUS41 KPHI 260056
MTRACY
METAR KACY 260054Z 23003KT 10SM CLR 09/02 A3013 RMK AO2 SLP202
T00940022





000
SAUS41 KPHI 260055
MTR12N
METAR K12N 260054Z AUTO 00000KT 02/01 A3009 RMK AO1 SLP196 T00220006





000
SAUS41 KPHI 252355
MTR12N
METAR K12N 252354Z AUTO 00000KT 03/01 A3007 RMK AO1 SLP187 T00330011
10111 20028 53025





000
SAUS41 KPHI 252355
MTRACY
METAR KACY 252354Z 00000KT 10SM CLR 09/02 A3009 RMK AO2 SLP188
T00940017 10128 20089 51015





000
SAUS41 KPHI 252255
MTRACY
METAR KACY 252254Z 26003KT 10SM CLR 11/00 A3008 RMK AO2 SLP184
T01060000





000
SAUS41 KPHI 252255
MTR12N
METAR K12N 252254Z AUTO 00000KT 04/01 A3004 RMK AO1 SLP175 T00390006





000
SAUS41 KPHI 252157
MTRACY
METAR KACY 252154Z 00000KT 10SM CLR 11/00 A3007 RMK AO2 SLP182
T01110000





000
SAUS41 KPHI 252157
MTRACY
METAR KACY 252154Z 00000KT 10SM CLR 11/00 A3007 RMK AO2 SLP182
T01110000





000
SAUS41 KPHI 252155
MTR12N
METAR K12N 252154Z AUTO 00000KT 08/M02 A3002 RMK AO1 SLP165
T00831022





000
SAUS41 KPHI 252155
MTR12N
METAR K12N 252154Z AUTO 00000KT 08/M02 A3002 RMK AO1 SLP165
T00831022





000
SAUS41 KPHI 252102
MTRACY
METAR KACY 252054Z 30005KT 10SM SCT080 12/00 A3004 RMK AO2 SLP173
T01170000 53006





000
SAUS41 KPHI 252055
MTR12N
METAR K12N 252054Z AUTO VRB04KT 11/M03 A3000 RMK AO1 SLP158
T01061028 53005





000
SAUS41 KPHI 251957
MTRACY
METAR KACY 251954Z 31010KT 10SM SCT050 12/01 A3002 RMK AO2 SLP166
T01220011





000
SAUS41 KPHI 251955
MTR12N
METAR K12N 251954Z AUTO VRB03KT 11/M03 A2998 RMK AO1 SLP154
T01111033





000
SAUS41 KPHI 251857
MTRACY
METAR KACY 251854Z 31008KT 10SM BKN044 OVC055 12/01 A3001 RMK AO2
SLP162 T01220011





000
SAUS41 KPHI 251855
MTR12N
METAR K12N 251854Z AUTO VRB04KT 11/M03 A2997 RMK AO1 SLP149
T01111028





000
SAUS41 KPHI 251756
MTRACY
METAR KACY 251754Z 30011KT 10SM OVC039 13/01 A3003 RMK AO2 SLP167
T01280006 10156 20128 50005





000
SAUS41 KPHI 251755
MTR12N
METAR K12N 251754Z AUTO 11/M03 A2998 RMK AO1 SLP151 T01061028 10117
20094 58009





000
SAUS41 KPHI 251657
MTRACY
METAR KACY 251654Z 30010KT 10SM OVC040 13/02 A3003 RMK AO2 SLP168
T01330022





000
SAUS41 KPHI 251657
MTRACY
METAR KACY 251654Z 30010KT 10SM OVC040 13/02 A3003 RMK AO2 SLP168
T01330022





000
SAUS41 KPHI 251656
MTR12N
METAR K12N 251654Z AUTO 27007KT 220V330 10/M03 A2999 RMK AO1 SLP155
T01001028





000
SAUS41 KPHI 251656
MTR12N
METAR K12N 251654Z AUTO 27007KT 220V330 10/M03 A2999 RMK AO1 SLP155
T01001028





000
SAUS41 KPHI 251557
MTRACY
METAR KACY 251554Z 31011KT 10SM BKN040 13/03 A3002 RMK AO2 SLP166
T01330033





000
SAUS41 KPHI 251555
MTR12N
METAR K12N 251554Z AUTO VRB05KT 09/M03 A3000 RMK AO1 SLP160
T00941028





000
SAUS41 KPHI 251457
MTRACY
METAR KACY 251454Z 31011KT 10SM BKN070 14/04 A3001 RMK AO2 SLP161
T01440044 53028





000
SAUS41 KPHI 251456
MTR12N
METAR K12N 251454Z AUTO VRB05KT 09/M03 A3001 RMK AO1 SLP161
T00941028 51026





000
SAUS41 KPHI 251357
MTRACY
METAR KACY 251354Z 31010KT 10SM CLR 14/07 A2998 RMK AO2 SLP151
T01440067





000
SAUS41 KPHI 251355
MTR12N
METAR K12N 251354Z AUTO 23007KT 190V260 10/M02 A2999 RMK AO1 SLP153
T01001022





000
SAUS41 KPHI 251256
MTRACY
METAR KACY 251254Z 31012KT 10SM CLR 15/11 A2995 RMK AO2 SLP142
T01500106





000
SAUS41 KPHI 251255
MTR12N
METAR K12N 251254Z AUTO VRB05G16KT 11/M01 A2996 RMK AO1 SLP145
T01061006





000
SAUS41 KPHI 251157
MTRACY
METAR KACY 251154Z 24005KT 10SM CLR 16/14 A2993 RMK AO2 SLP133
T01560144 10183 20150 53022





000
SAUS41 KPHI 251155
MTR12N
METAR K12N 251154Z AUTO 22009G16KT 180V250 12/01 A2993 RMK AO1
SLP134 T01170006 10161 20117 53036





000
SAUS41 KPHI 251057
MTRACY
METAR KACY 251054Z 24005KT 10SM BKN036 BKN044 17/14 A2991 RMK AO2
SLP126 T01670144





000
SAUS41 KPHI 251057
MTRACY
METAR KACY 251054Z 24005KT 10SM BKN036 BKN044 17/14 A2991 RMK AO2
SLP126 T01670144





000
SAUS41 KPHI 251055
MTR12N
METAR K12N 251054Z AUTO 00000KT 12/01 A2989 RMK AO1 SLP121 T01220006





000
SAUS41 KPHI 251055
MTR12N
METAR K12N 251054Z AUTO 00000KT 12/01 A2989 RMK AO1 SLP121 T01220006





000
SAUS41 KPHI 250956
MTRACY
METAR KACY 250954Z 25007KT 10SM CLR 17/14 A2987 RMK AO2 SLP113
T01670144





000
SAUS41 KPHI 250955
MTR12N
METAR K12N 250954Z AUTO VRB04KT 14/01 A2985 RMK AO1 SLP105 T01390011





000
SAUS41 KPHI 250855
MTR12N
METAR K12N 250854Z AUTO 00000KT 14/10 A2982 RMK AO1 SLP095 T01390100
53023





000
SAUS41 KPHI 250855
MTRACY
METAR KACY 250854Z 24008KT 10SM CLR 17/15 A2986 RMK AO2 SLP111
T01720150 51030





000
SAUS41 KPHI 250757
MTRACY
METAR KACY 250754Z 23008KT 10SM CLR 17/15 A2984 RMK AO2 SLP102
T01670150





000
SAUS41 KPHI 250755
MTR12N
METAR K12N 250754Z AUTO VRB04KT 14/12 A2979 RMK AO1 SLP084 T01440117





000
SAUS41 KPHI 250656
MTRACY
METAR KACY 250654Z 19006KT 8SM CLR 16/14 A2981 RMK AO2 SLP094
T01560144





000
SAUS41 KPHI 250655
MTR12N
METAR K12N 250654Z AUTO VRB04KT 15/12 A2976 RMK AO1 SLP075 T01500122





000
SAUS41 KPHI 250557
MTRACY
METAR KACY 250554Z 22009KT 10SM CLR 17/16 A2977 RMK AO2 PRESRR
SLP081 T01720156 10178 20139 58000





000
SAUS41 KPHI 250555
MTR12N
METAR K12N 250554Z AUTO 21006KT 16/13 A2975 RMK AO1 SLP070 T01610128
10172 20156 51015





000
SAUS41 KPHI 250456
MTRACY
METAR KACY 250454Z 21006KT 7SM FEW002 14/14 A2980 RMK AO2 SLP092
T01440139 402170139





000
SAUS41 KPHI 250455
MTR12N
METAR K12N 250454Z AUTO 22007KT 16/13 A2974 RMK AO1 SLP066 T01610128
402110094





000
SAUS41 KPHI 250447
MTRACY
SPECI KACY 250443Z 18007KT 4SM BR FEW002 14/14 A2980 RMK AO2
T01440139





000
SAUS41 KPHI 250355
MTR12N
METAR K12N 250354Z AUTO 21006KT 16/12 A2973 RMK AO1 SLP062 T01560122





000
SAUS41 KPHI 250355
MTRACY
METAR KACY 250354Z AUTO 23009KT 10SM CLR 18/16 A2977 RMK AO2 SLP081
T01780161 TSNO





000
SAUS41 KPHI 250355
MTR12N
METAR K12N 250354Z AUTO 21006KT 16/12 A2973 RMK AO1 SLP062 T01560122





000
SAUS41 KPHI 250355
MTRACY
METAR KACY 250354Z AUTO 23009KT 10SM CLR 18/16 A2977 RMK AO2 SLP081
T01780161 TSNO





000
SAUS41 KPHI 250256
MTRACY
METAR KACY 250254Z AUTO 22009KT 10SM CLR 18/16 A2977 RMK AO2 SLP081
T01780156 51013 TSNO





000
SAUS41 KPHI 250255
MTR12N
METAR K12N 250254Z AUTO 20005KT 16/12 A2971 RMK AO1 SLP056 T01610117
53020





000
SAUS41 KPHI 250157
MTRACY
METAR KACY 250154Z 22009KT 8SM CLR 16/14 A2976 RMK AO2 SLP078
T01560144





000
SAUS41 KPHI 250155
MTR12N
METAR K12N 250154Z AUTO VRB05KT 16/12 A2969 RMK AO1 SLP049 T01610117





000
SAUS41 KPHI 250057
MTRACY
METAR KACY 250054Z 20011KT 8SM CLR 16/14 A2976 RMK AO2 PRESRR SLP077
T01560144





000
SAUS41 KPHI 250055
MTR12N
METAR K12N 250054Z AUTO 22010G15KT 17/12 A2966 RMK AO1 SLP040
T01670117





000
SAUS41 KPHI 242357
MTRACY
METAR KACY 242354Z 20010KT 10SM CLR 16/14 A2974 RMK AO2 SLP069
T01610139 10217 20161 51019





000
SAUS41 KPHI 242355
MTR12N
METAR K12N 242354Z AUTO 21009KT 17/12 A2965 RMK AO1 SLP035 T01670122
10211 20167 51023





000
SAUS41 KPHI 242257
MTRACY
METAR KACY 242254Z 19010G17KT 10SM OVC110 17/14 A2972 RMK AO2 SLP063
T01720139





000
SAUS41 KPHI 242255
MTR12N
METAR K12N 242254Z AUTO VRB06KT 17/12 A2964 RMK AO1 SLP032 T01670117





000
SAUS41 KPHI 242156
MTRACY
METAR KACY 242154Z 19012G17KT 10SM CLR 18/14 A2970 RMK AO2 SLP058
T01780139





000
SAUS41 KPHI 242155
MTR12N
METAR K12N 242154Z AUTO 21009G15KT 160V230 18/12 A2962 RMK AO1
SLP027 T01780117





000
SAUS41 KPHI 242057
MTRACY
METAR KACY 242054Z 19014G18KT 10SM CLR 18/14 A2968 RMK AO2 SLP049
T01780139 53003





000
SAUS41 KPHI 242055
MTR12N
METAR K12N 242054Z AUTO 21010G19KT 19/12 A2958 RMK AO1 SLP013
T01890122 53003





000
SAUS41 KPHI 241955
MTRACY
METAR KACY 241954Z 20013G19KT 10SM CLR 18/14 A2966 RMK AO2 SLP041
T01830144





000
SAUS41 KPHI 241955
MTR12N
METAR K12N 241954Z AUTO 21013G24KT 21/13 A2954 RMK AO1 SLP000
T02110128





000
SAUS41 KPHI 241856
MTRACY
METAR KACY 241854Z 18011KT 10SM CLR 21/15 A2966 RMK AO2 SLP041
T02060150





000
SAUS41 KPHI 241855
MTR12N
METAR K12N 241854Z AUTO 21010G22KT 20/13 A2955 RMK AO1 SLP005
T02000128





000
SAUS41 KPHI 241756
MTRACY
METAR KACY 241754Z 20010KT 10SM CLR 21/16 A2967 RMK AO2 SLP046 60000
T02060156 10206 20156 56020





000
SAUS41 KPHI 241755
MTR12N
METAR K12N 241754Z AUTO 21014G24KT 21/13 A2957 RMK AO1 SLP011
T02060133 10206 20167 58023





000
SAUS41 KPHI 241729
MTRACY
SPECI KACY 241726Z 18008KT 10SM FEW025 18/16 A2967 RMK AO2 T01830156





000
SAUS41 KPHI 241656
MTRACY
METAR KACY 241654Z 18005KT 10SM FEW005 BKN024 BKN029 18/16 A2968 RMK
AO2 SLP050 T01780161





000
SAUS41 KPHI 241655
MTR12N
METAR K12N 241654Z AUTO 21010G22KT 19/14 A2959 RMK AO1 SLP019
T01940139





000
SAUS41 KPHI 241647
MTRACY
SPECI KACY 241644Z 18008KT 10SM SCT005 BKN026 17/16 A2969 RMK AO2
T01720156





000
SAUS41 KPHI 241637
MTRACY
SPECI KACY 241636Z 17007KT 10SM BKN005 BKN023 OVC029 17/16 A2969 RMK
AO2 T01720161





000
SAUS41 KPHI 241556
MTRACY
METAR KACY 241554Z 19011KT 2SM BR OVC003 16/16 A2971 RMK AO2 SFC VIS
9 SLP061 T01610156





000
SAUS41 KPHI 241555
MTR12N
METAR K12N 241554Z AUTO 22007G18KT 19/14 A2962 RMK AO1 SLP030
T01890144





000
SAUS41 KPHI 241512
MTRACY
SPECI KACY 241509Z 20011KT 160V220 2SM BR OVC004 17/16 A2973 RMK AO2
SFC VIS 8 T01670161





000
SAUS41 KPHI 241457
MTRACY
METAR KACY 241454Z 19014G21KT 8SM OVC004 17/17 A2973 RMK AO2 SLP065
60000 T01670167 56006





000
SAUS41 KPHI 241455
MTR12N
METAR K12N 241454Z AUTO 21012G23KT 18/14 A2964 RMK AO1 SLP036
T01830144 50003





000
SAUS41 KPHI 241355
MTRACY
METAR KACY 241354Z 19013G19KT 6SM BR OVC003 17/16 A2973 RMK AO2
SLP068 T01670161





000
SAUS41 KPHI 241355
MTR12N
METAR K12N 241354Z AUTO 21009G19KT 18/14 A2964 RMK AO1 SLP039
T01780144





000
SAUS41 KPHI 241255
MTR12N
METAR K12N 241254Z AUTO 20009G22KT 17/15 A2965 RMK AO1 SLP039
T01720150





000
SAUS41 KPHI 241255
MTRACY
METAR KACY 241254Z 20015G18KT 6SM BR OVC004 17/17 A2973 RMK AO2
RAB1159E11 SLP067 P0000 T01670167





000
SAUS41 KPHI 241227
MTRACY
SPECI KACY 241226Z 19013G20KT 2 1/2SM BR OVC004 17/16 A2974 RMK AO2
RAB1159E11 P0000 T01670161





000
SAUS41 KPHI 241211
MTRACY
SPECI KACY 241208Z 20013KT 3SM -RA BR OVC004 16/16 A2975 RMK AO2
RAB1159 P0000 T01610161





000
SAUS41 KPHI 241157
MTRACY
METAR KACY 241154Z 20013G22KT 2 1/2SM BR OVC004 16/16 A2974 RMK AO2
PK WND 18028/1104 RAB08E20 SLP071 P0000 60046 70048 T01610156 10161
20150 53001





000
SAUS41 KPHI 241155
MTR12N
METAR K12N 241154Z AUTO 19009G23KT 150V230 17/15 A2963 RMK AO1
SLP033 P0002 60055 70055 T01720150 10172 20094 56023





000
SAUS41 KPHI 241148
MTRACY
SPECI KACY 241145Z 20018G22KT 2 1/2SM BR OVC004 16/16 A2975 RMK AO2
PK WND 18028/1104 RAB08E20 P0000 T01560156





000
SAUS41 KPHI 241129
MTRACY
SPECI KACY 241126Z 19015G21KT 3SM BR OVC004 16/16 A2974 RMK AO2 PK
WND 18028/1104 RAB08E20 P0000 T01560156





000
SAUS41 KPHI 241116
MTRACY
SPECI KACY 241113Z 19014G28KT 2SM -RA BR OVC004 16/16 A2974 RMK AO2
PK WND 18028/1104 RAB08 P0000 T01560156





000
SAUS41 KPHI 241057
MTRACY
METAR KACY 241054Z 18016G28KT 5SM BR OVC004 16/16 A2974 RMK AO2 PK
WND 16030/0959 RAE54 SLP069 P0002 T01610156





000
SAUS41 KPHI 241055
MTR12N
METAR K12N 241054Z AUTO 19010G19KT 160V230 16/15 A2964 RMK AO1
SLP037 P0004 T01610150





000
SAUS41 KPHI 241042
MTRACY
SPECI KACY 241040Z 18016G24KT 4SM -RA BR OVC004 16/15 A2974 RMK AO2
PK WND 16030/0959 P0001 T01560150





000
SAUS41 KPHI 240955
MTRACY
METAR KACY 240954Z 7SM -RA OVC005 16/16 A2973 RMK AO2 PK WND
18034/0901 SLP068 P0005 T01610156





000
SAUS41 KPHI 240955
MTR12N
METAR K12N 240954Z AUTO VRB06G18KT 15/14 A2966 RMK AO1 SLP043 P0014
T01500139





000
SAUS41 KPHI 240955
MTR12N
METAR K12N 240954Z AUTO VRB06G18KT 15/14 A2966 RMK AO1 SLP043 P0014
T01500139





000
SAUS41 KPHI 240955
MTRACY
METAR KACY 240954Z 7SM -RA OVC005 16/16 A2973 RMK AO2 PK WND
18034/0901 SLP068 P0005 T01610156





000
SAUS41 KPHI 240856
MTRACY
METAR KACY 240854Z 16022G29KT 5SM -RA BR OVC006 16/15 A2974 RMK AO2
PK WND 15030/0851 PRESFR SLP070 P0017 60039 T01560150 58049





000
SAUS41 KPHI 240855
MTR12N
METAR K12N 240854Z AUTO 17007G19KT 120V250 13/12 A2970 RMK AO1
PRESFR SLP056 P0017 60035 T01330122 58068





000
SAUS41 KPHI 240756
MTRACY
METAR KACY 240754Z 16017G29KT 4SM RA BR BKN007 OVC014 16/15 A2980
RMK AO2 PK WND 17029/0747 CIG 005V011 SLP091 P0014 T01560150





000
SAUS41 KPHI 240755
MTR12N
METAR K12N 240754Z AUTO 16008KT 100V210 12/11 A2976 RMK AO1 PRESFR
SLP077 P0014 T01170106





000
SAUS41 KPHI 240750
MTRACY
SPECI KACY 240747Z 16017G29KT 4SM RA BR BKN008 OVC014 15/14 A2980
RMK AO2 PK WND 17029/0747 P0012 T01500144





000
SAUS41 KPHI 240738
MTRACY
SPECI KACY 240735Z 4SM -RA BR SCT008 BKN014 OVC023 15/14 A2981 RMK
AO2 PK WND 15027/0731 P0009 T01500144





000
SAUS41 KPHI 240707
MTRACY
SPECI KACY 240705Z 14015G21KT 5SM RA BR SCT006 BKN026 OVC034 15/14
A2983 RMK AO2 P0001 T01500144





000
SAUS41 KPHI 240657
MTRACY
METAR KACY 240654Z 15016G22KT 4SM RA BR BKN006 BKN026 OVC034 15/14
A2984 RMK AO2 SLP105 P0008 T01500144





000
SAUS41 KPHI 240655
MTR12N
METAR K12N 240654Z AUTO VRB05KT 11/09 A2985 RMK AO1 SLP107 P0004
T01060094





000
SAUS41 KPHI 240637
MTRACY
SPECI KACY 240636Z 15017G22KT 4SM -RA BR BKN006 BKN012 OVC023 16/15
A2985 RMK AO2 P0005 T01560150





000
SAUS41 KPHI 240629
MTRACY
SPECI KACY 240626Z 14018G22KT 2 1/2SM RA BR SCT005 BKN012 OVC021
16/15 A2986 RMK AO2 P0003 T01560150





000
SAUS41 KPHI 240601
MTRACY
SPECI KACY 240600Z 14014G20KT 3SM -RA BR FEW005 BKN021 OVC030 15/14
A2988 RMK AO2 P0001 T01500144





000
SAUS41 KPHI 240557
MTRACY
METAR KACY 240554Z 14012G20KT 2 1/2SM -RA BR FEW015 BKN028 OVC034
15/14 A2988 RMK AO2 RAB0456E23B48 SLP119 P0002 60002 T01500144 10150
20083 58052





000
SAUS41 KPHI 240555
MTR12N
METAR K12N 240554Z AUTO VRB05KT 09/07 A2990 RMK AO1 SLP128 T00940072
10106 20044 58042





000
SAUS41 KPHI 240514
MTRACY
SPECI KACY 240511Z 13010KT 4SM RA BR SCT021 BKN027 OVC042 14/13
A2993 RMK AO2 RAB0456 P0001 T01440133





000
SAUS41 KPHI 240455
MTRACY
METAR KACY 240454Z 13009KT 8SM SCT026 BKN032 OVC040 15/13 A2994 RMK
AO2 SLP139 T01500128 401500039





000
SAUS41 KPHI 240455
MTR12N
METAR K12N 240454Z AUTO 00000KT 10/06 A2996 RMK AO1 SLP146 T01000056
401500017





000
SAUS41 KPHI 240357
MTRACY
METAR KACY 240354Z 14009KT 10SM SCT033 OVC041 14/12 A2999 RMK AO2
SLP155 T01440117





000
SAUS41 KPHI 240357
MTRACY
METAR KACY 240354Z 14009KT 10SM SCT033 OVC041 14/12 A2999 RMK AO2
SLP155 T01440117





000
SAUS41 KPHI 240355
MTR12N
METAR K12N 240354Z AUTO 19003KT 08/02 A3000 RMK AO1 SLP162 T00830022





000
SAUS41 KPHI 240355
MTR12N
METAR K12N 240354Z AUTO 19003KT 08/02 A3000 RMK AO1 SLP162 T00830022





000
SAUS41 KPHI 240257
MTRACY
METAR KACY 240254Z 15009KT 10SM OVC045 14/11 A3004 RMK AO2 SLP171
T01440106 56030





000
SAUS41 KPHI 240255
MTR12N
METAR K12N 240254Z AUTO 21003KT 07/00 A3003 RMK AO1 SLP173 T00720000
58020





000
SAUS41 KPHI 240157
MTRACY
METAR KACY 240154Z 16008KT 10SM OVC047 12/11 A3006 RMK AO2 SLP179
T01220106





000
SAUS41 KPHI 240157
MTRACY
METAR KACY 240154Z 16008KT 10SM OVC047 12/11 A3006 RMK AO2 SLP179
T01220106





000
SAUS41 KPHI 240155
MTR12N
METAR K12N 240154Z AUTO 00000KT 06/M01 A3006 RMK AO1 SLP185
T00561011





000
SAUS41 KPHI 240155
MTR12N
METAR K12N 240154Z AUTO 00000KT 06/M01 A3006 RMK AO1 SLP185
T00561011





000
SAUS41 KPHI 240057
MTRACY
METAR KACY 240054Z 10004KT 10SM BKN048 09/08 A3009 RMK AO2 SLP190
T00940083





000
SAUS41 KPHI 240055
MTR12N
METAR K12N 240054Z AUTO 22003KT 08/M03 A3008 RMK AO1 SLP193
T00781028





000
SAUS41 KPHI 232357
MTRACY
METAR KACY 232354Z 10SM CLR 09/07 A3013 RMK AO2 SLP202 T00940072
10133 20089 58009





000
SAUS41 KPHI 232355
MTR12N
METAR K12N 232354Z AUTO 19003KT 07/M03 A3009 RMK AO1 SLP196
T00671028 10150 20056 58003





000
SAUS41 KPHI 232255
MTR12N
METAR K12N 232254Z AUTO 17004KT 08/M03 A3010 RMK AO1 SLP199
T00831033





000
SAUS41 KPHI 232255
MTRACY
METAR KACY 232254Z 16007KT 10SM CLR 10/07 A3015 RMK AO2 SLP208
T01000072





000
SAUS41 KPHI 232156
MTRACY
METAR KACY 232154Z 17005KT 10SM CLR 10/06 A3015 RMK AO2 SLP211
T01000061





000
SAUS41 KPHI 232156
MTRACY
METAR KACY 232154Z 17005KT 10SM CLR 10/06 A3015 RMK AO2 SLP211
T01000061





000
SAUS41 KPHI 232155
MTR12N
METAR K12N 232154Z AUTO 00000KT 09/M03 A3010 RMK AO1 SLP198
T00891028





000
SAUS41 KPHI 232155
MTR12N
METAR K12N 232154Z AUTO 00000KT 09/M03 A3010 RMK AO1 SLP198
T00891028





000
SAUS41 KPHI 232056
MTRACY
METAR KACY 232054Z 15006KT 10SM CLR 12/06 A3015 RMK AO2 SLP211
T01170061 55010





000
SAUS41 KPHI 232055
MTR12N
METAR K12N 232054Z AUTO 00000KT 11/M02 A3010 RMK AO1 SLP197
T01111022 58004





000
SAUS41 KPHI 231957
MTRACY
METAR KACY 231954Z 19006KT 10SM CLR 13/07 A3015 RMK AO2 SLP210
T01330067





000
SAUS41 KPHI 231955
MTR12N
METAR K12N 231954Z AUTO 23006KT 14/M04 A3011 RMK AO1 SLP200
T01441039





000
SAUS41 KPHI 231955
MTR12N
METAR K12N 231954Z AUTO 23006KT 14/M04 A3011 RMK AO1 SLP200
T01441039





000
SAUS41 KPHI 231856
MTRACY
METAR KACY 231854Z 24004KT 10SM CLR 13/05 A3016 RMK AO2 SLP213
T01330050





000
SAUS41 KPHI 231855
MTR12N
METAR K12N 231854Z AUTO 25004KT 14/M05 A3011 RMK AO1 SLP200
T01391050





000
SAUS41 KPHI 231757
MTRACY
METAR KACY 231754Z 24008KT 10SM CLR 12/M01 A3018 RMK AO2 SLP220
T01221006 10122 20050 56018





000
SAUS41 KPHI 231755
MTR12N
METAR K12N 231754Z AUTO VRB03KT 12/M05 A3011 RMK AO1 SLP202
T01171050 10122 20033 58022





000
SAUS41 KPHI 231657
MTRACY
METAR KACY 231654Z 22011KT 10SM CLR 12/M03 A3019 RMK AO2 SLP223
T01171028





000
SAUS41 KPHI 231655
MTR12N
METAR K12N 231654Z AUTO 22003KT 09/M06 A3014 RMK AO1 SLP212
T00941056





000
SAUS41 KPHI 231557
MTRACY
METAR KACY 231554Z 22009KT 10SM CLR 11/M03 A3022 RMK AO2 SLP233
T01061028





000
SAUS41 KPHI 231555
MTR12N
METAR K12N 231554Z AUTO 21005KT 07/M06 A3017 RMK AO1 SLP223
T00721061





000
SAUS41 KPHI 231555
MTR12N
METAR K12N 231554Z AUTO 21005KT 07/M06 A3017 RMK AO1 SLP223
T00721061





    US Dept of Commerce
    National Oceanic and Atmospheric Administration
    National Weather Service
    1325 East West Highway
    Silver Spring, MD 20910
    Page Author: NWS Internet Services Team
Disclaimer
Information Quality
Credits
Glossary
Privacy Policy
Freedom of Information Act (FOIA)
About Us
Career Opportunities